Time;durP1;ratioP1;P1;durP2;ratioP2;P2;SDS_P1;SDS_P2;PMS_P1;PMS_P2;Temp;Humidity;BMP_temperature;BMP_pressure;BME280_temperature;BME280_humidity;BME280_pressure;Samples;Min_cycle;Max_cycle;Signal;HPM_P1;HPM_P2
2022/04/08 00:01:11;;;;;;;4.80;2.65;;;;;;;;;;6316112;28;20047;-77
2022/04/08 00:04:15;;;;;;;5.45;3.30;;;;;;;;;;6315690;28;20063;-77
2022/04/08 00:07:18;;;;;;;4.32;2.80;;;;;;;;;;6316389;28;20040;-77
2022/04/08 00:10:24;;;;;;;6.20;3.30;;;;;;;;;;6314175;28;20044;-77
2022/04/08 00:13:27;;;;;;;4.07;2.85;;;;;;;;;;6315107;28;20067;-76
2022/04/08 00:16:30;;;;;;;3.85;2.88;;;;;;;;;;6315464;28;20105;-75
2022/04/08 00:19:36;;;;;;;;;;;;;;;;;;6317636;28;20440;-77
2022/04/08 00:22:42;;;;;;;3.92;2.80;;;;;;;;;;6317794;28;19927;-77
2022/04/08 00:25:45;;;;;;;;;;;;;;;;;;6318359;28;20047;-77
2022/04/08 00:28:48;;;;;;;4.30;2.58;;;;;;;;;;6317143;28;19935;-77
2022/04/08 00:31:57;;;;;;;4.45;2.95;;;;;;;;;;6317672;28;20391;-76
2022/04/08 00:35:01;;;;;;;3.78;2.80;;;;;;;;;;6317464;28;20054;-77
2022/04/08 00:38:07;;;;;;;2.90;2.60;;;;;;;;;;6317396;28;20055;-77
2022/04/08 00:41:13;;;;;;;5.82;2.90;;;;;;;;;;6316658;28;20054;-77
2022/04/08 00:44:16;;;;;;;5.20;2.63;;;;;;;;;;6317281;28;20047;-77
2022/04/08 00:47:19;;;;;;;4.50;3.15;;;;;;;;;;6316325;28;20059;-78
2022/04/08 00:50:22;;;;;;;5.13;2.80;;;;;;;;;;6316739;28;20059;-77
2022/04/08 00:53:28;;;;;;;5.40;2.78;;;;;;;;;;6317153;28;20127;-77
2022/04/08 00:56:31;;;;;;;8.48;3.08;;;;;;;;;;6317160;28;20509;-77
2022/04/08 00:59:34;;;;;;;5.20;3.00;;;;;;;;;;6316486;28;20048;-77
2022/04/08 01:02:37;;;;;;;4.45;2.97;;;;;;;;;;6316074;28;20040;-76
2022/04/08 01:05:41;;;;;;;4.93;3.10;;;;;;;;;;6316645;28;20036;-77
2022/04/08 01:08:45;;;;;;;7.22;3.20;;;;;;;;;;6315863;28;20054;-77
2022/04/08 01:11:49;;;;;;;4.43;2.95;;;;;;;;;;6316300;28;20280;-78
2022/04/08 01:14:58;;;;;;;4.20;3.25;;;;;;;;;;6315468;28;20051;-78
2022/04/08 01:18:01;;;;;;;3.97;2.88;;;;;;;;;;6316744;28;20093;-78
2022/04/08 01:21:05;;;;;;;6.88;3.25;;;;;;;;;;6317422;28;20417;-78
2022/04/08 01:24:10;;;;;;;6.18;3.17;;;;;;;;;;6315599;28;20055;-76
2022/04/08 01:27:13;;;;;;;;;;;;;;;;;;6315661;28;20044;-78
2022/04/08 01:30:17;;;;;;;6.43;3.55;;;;;;;;;;6316986;28;19920;-76
2022/04/08 01:33:20;;;;;;;3.65;3.03;;;;;;;;;;6315893;28;20614;-76
2022/04/08 01:36:23;;;;;;;6.07;3.05;;;;;;;;;;6315033;28;20044;-77
2022/04/08 01:39:27;;;;;;;4.40;3.00;;;;;;;;;;6315169;28;20044;-77
2022/04/08 01:42:30;;;;;;;5.57;3.10;;;;;;;;;;6315952;28;20043;-76
2022/04/08 01:45:34;;;;;;;5.45;2.83;;;;;;;;;;6315018;28;20044;-77
2022/04/08 01:48:39;;;;;;;5.20;2.78;;;;;;;;;;6315990;28;20056;-76
2022/04/08 01:51:42;;;;;;;4.25;2.90;;;;;;;;;;6316817;28;20517;-75
2022/04/08 01:54:46;;;;;;;7.72;2.92;;;;;;;;;;6316610;28;20047;-76
2022/04/08 01:57:49;;;;;;;6.28;3.42;;;;;;;;;;6316027;28;20513;-77
2022/04/08 02:00:53;;;;;;;4.68;2.90;;;;;;;;;;6318233;28;20047;-77
2022/04/08 02:03:57;;;;;;;5.38;2.83;;;;;;;;;;6321950;28;20044;-76
2022/04/08 02:07:02;;;;;;;5.85;3.47;;;;;;;;;;6319743;28;20486;-77
2022/04/08 02:10:07;;;;;;;6.18;3.30;;;;;;;;;;6320932;28;20051;-78
2022/04/08 02:13:10;;;;;;;5.00;3.20;;;;;;;;;;6320211;28;20044;-76
2022/04/08 02:16:15;;;;;;;;;;;;;;;;;;6321961;28;20044;-77
2022/04/08 02:19:20;;;;;;;5.43;3.35;;;;;;;;;;6320646;28;20474;-76
2022/04/08 02:22:24;;;;;;;7.03;3.50;;;;;;;;;;6319769;28;20062;-76
2022/04/08 02:25:30;;;;;;;4.85;2.90;;;;;;;;;;6321413;28;20044;-76
2022/04/08 02:28:33;;;;;;;5.93;2.70;;;;;;;;;;6319155;28;20044;-76
2022/04/08 02:31:36;;;;;;;6.97;2.92;;;;;;;;;;6319067;28;20052;-77
2022/04/08 02:34:41;;;;;;;8.57;3.20;;;;;;;;;;6319755;28;20505;-77
2022/04/08 02:37:46;;;;;;;4.95;2.90;;;;;;;;;;6321360;28;20048;-75
2022/04/08 02:40:49;;;;;;;6.40;3.08;;;;;;;;;;6320049;28;20044;-78
2022/04/08 02:43:52;;;;;;;7.40;3.20;;;;;;;;;;6319298;28;20143;-78
2022/04/08 02:46:55;;;;;;;5.07;3.13;;;;;;;;;;6321335;28;20066;-76
2022/04/08 02:49:59;;;;;;;8.75;3.75;;;;;;;;;;6318513;28;20055;-77
2022/04/08 02:53:02;;;;;;;8.32;3.25;;;;;;;;;;6318681;28;20406;-77
2022/04/08 02:56:05;;;;;;;8.48;3.38;;;;;;;;;;6320785;28;20040;-76
2022/04/08 02:59:10;;;;;;;;;;;;;;;;;;6320570;28;20052;-76
2022/04/08 03:02:13;;;;;;;4.88;3.20;;;;;;;;;;6319595;28;19919;-76
2022/04/08 03:05:20;;;;;;;6.65;3.05;;;;;;;;;;6320308;28;20403;-77
2022/04/08 03:08:23;;;;;;;4.57;2.47;;;;;;;;;;6320076;28;20067;-76
2022/04/08 03:11:26;;;;;;;4.25;2.72;;;;;;;;;;6316710;28;20056;-76
2022/04/08 03:14:29;;;;;;;3.15;2.10;;;;;;;;;;6319455;28;20031;-76
2022/04/08 03:17:32;;;;;;;6.30;1.55;;;;;;;;;;6318688;28;20048;-76
2022/04/08 03:20:36;;;;;;;2.55;1.48;;;;;;;;;;6317990;28;20044;-78
2022/04/08 03:23:43;;;;;;;2.90;1.38;;;;;;;;;;6317987;28;20052;-78
2022/04/08 03:26:49;;;;;;;3.97;1.40;;;;;;;;;;6318460;28;20490;-80
2022/04/08 03:29:52;;;;;;;2.50;1.00;;;;;;;;;;6319369;28;20044;-79
2022/04/08 03:32:55;;;;;;;3.10;0.70;;;;;;;;;;6318681;28;20080;-80
2022/04/08 03:36:00;;;;;;;4.07;0.70;;;;;;;;;;6319178;28;20099;-77
2022/04/08 03:39:03;;;;;;;7.18;0.90;;;;;;;;;;6318196;28;20487;-77
2022/04/08 03:42:10;;;;;;;9.25;0.80;;;;;;;;;;6318508;28;20048;-76
2022/04/08 03:45:15;;;;;;;3.97;0.70;;;;;;;;;;6317404;28;20097;-77
2022/04/08 03:48:18;;;;;;;7.75;0.88;;;;;;;;;;6319020;28;20055;-75
2022/04/08 03:51:25;;;;;;;0.73;0.70;;;;;;;;;;6319045;28;20093;-77
2022/04/08 03:54:28;;;;;;;2.30;0.70;;;;;;;;;;6317154;28;20048;-79
2022/04/08 03:57:31;;;;;;;1.55;0.80;;;;;;;;;;6318721;28;20047;-78
2022/04/08 04:00:34;;;;;;;2.97;0.60;;;;;;;;;;6318935;28;20050;-75
2022/04/08 04:03:39;;;;;;;1.75;0.80;;;;;;;;;;6318501;28;20048;-77
2022/04/08 04:06:44;;;;;;;1.85;0.60;;;;;;;;;;6318157;28;20044;-78
2022/04/08 04:09:47;;;;;;;3.20;0.60;;;;;;;;;;6319071;28;20055;-80
2022/04/08 04:12:50;;;;;;;1.65;0.40;;;;;;;;;;6316719;28;20044;-79
2022/04/08 04:15:53;;;;;;;5.78;0.70;;;;;;;;;;6317845;28;20047;-79
2022/04/08 04:18:57;;;;;;;1.05;0.47;;;;;;;;;;6318219;28;20048;-79
2022/04/08 04:22:02;;;;;;;3.10;0.38;;;;;;;;;;6317948;28;20102;-79
2022/04/08 04:25:05;;;;;;;2.25;0.60;;;;;;;;;;6316357;28;20047;-79
2022/04/08 04:28:08;;;;;;;2.20;0.52;;;;;;;;;;6317650;28;20047;-81
2022/04/08 04:31:11;;;;;;;3.15;0.80;;;;;;;;;;6318433;28;20048;-81
2022/04/08 04:34:14;;;;;;;3.22;0.55;;;;;;;;;;6317393;28;20117;-80
2022/04/08 04:37:22;;;;;;;2.30;0.60;;;;;;;;;;6316124;28;20056;-82
2022/04/08 04:40:25;;;;;;;3.85;0.60;;;;;;;;;;6318349;28;20444;-81
2022/04/08 04:43:28;;;;;;;3.05;0.65;;;;;;;;;;6316401;28;20483;-83
2022/04/08 04:46:31;;;;;;;2.72;0.70;;;;;;;;;;6315880;28;20036;-81
2022/04/08 04:49:37;;;;;;;1.80;0.50;;;;;;;;;;6315527;28;20510;-84
2022/04/08 04:52:41;;;;;;;4.13;0.93;;;;;;;;;;6316239;28;20047;-82
2022/04/08 04:55:44;;;;;;;2.30;0.70;;;;;;;;;;6315691;28;20044;-81
2022/04/08 04:58:47;;;;;;;3.78;0.73;;;;;;;;;;6315735;28;20044;-82
2022/04/08 05:01:50;;;;;;;3.55;1.83;;;;;;;;;;6317567;28;20040;-80
2022/04/08 05:04:56;;;;;;;;;;;;;;;;;;6317822;28;20493;-82
2022/04/08 05:08:03;;;;;;;3.65;0.63;;;;;;;;;;6316665;28;19927;-83
2022/04/08 05:11:06;;;;;;;2.72;0.60;;;;;;;;;;6315753;28;20047;-83
2022/04/08 05:14:09;;;;;;;3.00;0.75;;;;;;;;;;6317100;28;20422;-80
2022/04/08 05:17:12;;;;;;;3.58;0.60;;;;;;;;;;6315272;28;20397;-83
2022/04/08 05:20:15;;;;;;;5.57;0.80;;;;;;;;;;6315522;28;20032;-80
2022/04/08 05:23:20;;;;;;;3.03;0.70;;;;;;;;;;6299383;28;20055;-82
2022/04/08 05:26:23;;;;;;;2.53;0.70;;;;;;;;;;6315043;28;20047;-78
2022/04/08 05:29:26;;;;;;;7.93;1.42;;;;;;;;;;6315188;28;20129;-79
2022/04/08 05:32:29;;;;;;;8.95;1.08;;;;;;;;;;6316734;28;20868;-80
2022/04/08 05:35:32;;;;;;;2.42;0.88;;;;;;;;;;6318280;28;20127;-87
2022/04/08 05:38:37;;;;;;;7.18;1.40;;;;;;;;;;6320325;28;20044;-86
2022/04/08 05:41:39;;;;;;;9.65;1.33;;;;;;;;;;6320121;28;20044;-82
2022/04/08 05:44:43;;;;;;;4.88;0.82;;;;;;;;;;6320826;28;20051;-80
2022/04/08 05:47:47;;;;;;;1.25;0.60;;;;;;;;;;6320347;28;20044;-80
2022/04/08 05:50:52;;;;;;;3.45;1.00;;;;;;;;;;6320608;28;20044;-79
2022/04/08 05:53:56;;;;;;;3.60;0.75;;;;;;;;;;6320451;28;20043;-79
2022/04/08 05:57:01;;;;;;;3.40;0.70;;;;;;;;;;6321448;28;20059;-79
2022/04/08 06:00:05;;;;;;;1.65;0.77;;;;;;;;;;6321011;28;20055;-78
2022/04/08 06:03:10;;;;;;;3.67;0.68;;;;;;;;;;6319790;28;20059;-82
2022/04/08 06:06:13;;;;;;;5.05;1.10;;;;;;;;;;6321457;28;20733;-79
2022/04/08 06:09:18;;;;;;;5.45;1.00;;;;;;;;;;6320648;28;20048;-78
2022/04/08 06:12:21;;;;;;;3.33;1.03;;;;;;;;;;6319359;28;20541;-80
2022/04/08 06:15:26;;;;;;;3.47;0.75;;;;;;;;;;6321764;28;20097;-80
2022/04/08 06:18:29;;;;;;;2.78;0.47;;;;;;;;;;6320786;28;20089;-78
2022/04/08 06:21:32;;;;;;;8.10;1.23;;;;;;;;;;6319312;28;20047;-80
2022/04/08 06:24:36;;;;;;;3.97;0.90;;;;;;;;;;6320995;28;20383;-80
2022/04/08 06:27:40;;;;;;;3.07;1.00;;;;;;;;;;6320850;28;20051;-80
2022/04/08 06:30:43;;;;;;;1.85;0.68;;;;;;;;;;6318538;28;20047;-79
2022/04/08 06:33:49;;;;;;;4.55;0.80;;;;;;;;;;6318837;28;20476;-81
2022/04/08 06:36:51;;;;;;;6.00;1.42;;;;;;;;;;6320878;28;20044;-80
2022/04/08 06:39:57;;;;;;;1.52;0.80;;;;;;;;;;6319960;28;20040;-78
2022/04/08 06:43:06;;;;;;;5.50;0.95;;;;;;;;;;6321718;28;20036;-89
2022/04/08 06:46:09;;;;;;;3.85;0.80;;;;;;;;;;6323571;28;20052;-88
2022/04/08 06:49:13;;;;;;;1.88;0.88;;;;;;;;;;6321142;28;20048;-89
2022/04/08 06:52:16;;;;;;;3.10;0.70;;;;;;;;;;6319884;28;20073;-85
2022/04/08 06:55:20;;;;;;;10.75;1.33;;;;;;;;;;6318844;28;20563;-81
2022/04/08 06:58:26;;;;;;;2.35;1.05;;;;;;;;;;6320807;28;20567;-81
2022/04/08 07:01:30;;;;;;;3.55;0.88;;;;;;;;;;6318389;28;20058;-79
2022/04/08 07:04:33;;;;;;;3.58;0.88;;;;;;;;;;6319550;28;20078;-77
2022/04/08 07:07:37;;;;;;;6.05;1.17;;;;;;;;;;6318659;28;20685;-83
2022/04/08 07:10:42;;;;;;;5.97;1.13;;;;;;;;;;6319153;28;20439;-81
2022/04/08 07:13:45;;;;;;;3.42;1.00;;;;;;;;;;6319106;28;20044;-80
2022/04/08 07:16:48;;;;;;;2.38;0.80;;;;;;;;;;6319605;28;20179;-81
2022/04/08 07:19:51;;;;;;;2.95;0.52;;;;;;;;;;6319556;28;20044;-79
2022/04/08 07:22:54;;;;;;;2.97;0.98;;;;;;;;;;6316137;28;20059;-79
2022/04/08 07:25:59;;;;;;;4.53;0.90;;;;;;;;;;6315004;28;20127;-78
2022/04/08 07:29:02;;;;;;;4.80;1.13;;;;;;;;;;6316893;28;20055;-79
2022/04/08 07:32:05;;;;;;;4.65;0.88;;;;;;;;;;6316252;28;20305;-78
2022/04/08 07:35:10;;;;;;;3.50;0.90;;;;;;;;;;6315053;28;20059;-78
2022/04/08 07:38:12;;;;;;;3.05;0.60;;;;;;;;;;6319205;28;20409;-79
2022/04/08 07:41:17;;;;;;;11.10;1.38;;;;;;;;;;6319600;28;20051;-78
2022/04/08 07:44:20;;;;;;;2.45;0.85;;;;;;;;;;6318675;28;20066;-79
2022/04/08 07:47:27;;;;;;;4.38;0.60;;;;;;;;;;6316606;28;20048;-80
2022/04/08 07:50:30;;;;;;;2.58;0.80;;;;;;;;;;6317928;28;20052;-81
2022/04/08 07:53:35;;;;;;;7.95;0.75;;;;;;;;;;6318411;28;20044;-80
2022/04/08 07:56:40;;;;;;;4.38;1.02;;;;;;;;;;6318363;28;20044;-81
2022/04/08 07:59:43;;;;;;;2.63;0.60;;;;;;;;;;6318147;28;20409;-82
2022/04/08 08:02:47;;;;;;;1.85;0.80;;;;;;;;;;6317200;28;20380;-82
2022/04/08 08:05:52;;;;;;;5.40;0.85;;;;;;;;;;6318257;28;20486;-81
2022/04/08 08:08:58;;;;;;;1.80;0.70;;;;;;;;;;6317180;28;20113;-79
2022/04/08 08:12:03;;;;;;;1.67;0.57;;;;;;;;;;6318969;28;20059;-80
2022/04/08 08:15:06;;;;;;;2.72;0.85;;;;;;;;;;6318055;28;20040;-81
2022/04/08 08:18:12;;;;;;;1.77;0.60;;;;;;;;;;6316613;28;20047;-81
2022/04/08 08:21:15;;;;;;;2.22;0.60;;;;;;;;;;6316837;28;20383;-80
2022/04/08 08:24:18;;;;;;;4.57;0.90;;;;;;;;;;6318466;28;20040;-79
2022/04/08 08:27:23;;;;;;;3.30;1.20;;;;;;;;;;6317409;28;20054;-80
2022/04/08 08:30:27;;;;;;;2.05;0.40;;;;;;;;;;6317347;28;20044;-80
2022/04/08 08:33:30;;;;;;;1.95;0.52;;;;;;;;;;6318044;28;20058;-79
2022/04/08 08:36:33;;;;;;;6.45;0.98;;;;;;;;;;6316119;28;20523;-79
2022/04/08 08:39:36;;;;;;;3.97;1.00;;;;;;;;;;6315913;28;20448;-79
2022/04/08 08:42:42;;;;;;;2.08;0.50;;;;;;;;;;6317373;28;20052;-79
2022/04/08 08:45:45;;;;;;;;;;;;;;;;;;6316486;28;20044;-80
2022/04/08 08:48:50;;;;;;;2.03;0.70;;;;;;;;;;6316725;28;20294;-80
2022/04/08 08:51:56;;;;;;;4.78;0.75;;;;;;;;;;6318190;28;20401;-80
2022/04/08 08:54:59;;;;;;;2.03;0.85;;;;;;;;;;6316574;28;20429;-79
2022/04/08 08:58:04;;;;;;;3.55;0.80;;;;;;;;;;6316868;28;20040;-79
2022/04/08 09:01:09;;;;;;;2.58;0.70;;;;;;;;;;6315807;28;20048;-80
2022/04/08 09:04:12;;;;;;;1.63;1.00;;;;;;;;;;6317884;28;20032;-77
2022/04/08 09:07:25;;;;;;;2.22;0.50;;;;;;;;;;6315686;28;20133;-79
2022/04/08 09:10:29;;;;;;;1.23;0.47;;;;;;;;;;6315671;28;20039;-80
2022/04/08 09:13:43;;;;;;;3.03;0.60;;;;;;;;;;6315551;28;20040;-81
2022/04/08 09:16:46;;;;;;;6.55;0.77;;;;;;;;;;6316079;28;20490;-80
2022/04/08 09:19:50;;;;;;;3.58;0.57;;;;;;;;;;6315169;28;20051;-79
2022/04/08 09:22:55;;;;;;;3.20;0.70;;;;;;;;;;6315152;28;20044;-79
2022/04/08 09:26:02;;;;;;;1.90;0.70;;;;;;;;;;6315526;28;20047;-77
2022/04/08 09:29:06;;;;;;;1.27;0.47;;;;;;;;;;6315384;28;20047;-78
2022/04/08 09:32:10;;;;;;;4.00;0.67;;;;;;;;;;6316544;28;20418;-80
2022/04/08 09:35:17;;;;;;;1.70;0.50;;;;;;;;;;6316235;28;20097;-79
2022/04/08 09:38:21;;;;;;;1.48;0.68;;;;;;;;;;6317799;28;20052;-79
2022/04/08 09:41:36;;;;;;;7.18;1.38;;;;;;;;;;6315088;28;20080;-79
2022/04/08 09:44:41;;;;;;;4.03;0.60;;;;;;;;;;6316820;28;20119;-79
2022/04/08 09:47:44;;;;;;;4.00;0.85;;;;;;;;;;6315607;28;20048;-80
2022/04/08 09:50:51;;;;;;;2.08;0.55;;;;;;;;;;6316785;28;20050;-78
2022/04/08 09:53:55;;;;;;;2.97;0.52;;;;;;;;;;6316177;28;20044;-79
2022/04/08 09:56:59;;;;;;;3.60;0.80;;;;;;;;;;6315229;28;20160;-79
2022/04/08 10:00:09;;;;;;;3.55;0.80;;;;;;;;;;6315582;28;20496;-78
2022/04/08 10:03:13;;;;;;;1.98;0.80;;;;;;;;;;6316055;28;20448;-79
2022/04/08 10:06:16;;;;;;;2.42;0.63;;;;;;;;;;6314715;28;20071;-79
2022/04/08 10:09:20;;;;;;;3.55;0.70;;;;;;;;;;6314973;28;20510;-79
2022/04/08 10:12:28;;;;;;;1.52;0.65;;;;;;;;;;6314920;28;20032;-81
2022/04/08 10:15:36;;;;;;;1.73;0.80;;;;;;;;;;6315816;28;20051;-81
2022/04/08 10:18:39;;;;;;;2.75;0.68;;;;;;;;;;6315511;28;20051;-81
2022/04/08 10:21:42;;;;;;;44.50;20.08;;;;;;;;;;6317366;28;20048;-79
2022/04/08 10:24:56;;;;;;;18.23;7.55;;;;;;;;;;6319263;28;20093;-79
2022/04/08 10:28:01;;;;;;;;;;;;;;;;;;6321546;28;20052;-80
2022/04/08 10:31:16;;;;;;;1.38;0.57;;;;;;;;;;6319631;28;19927;-83
2022/04/08 10:34:19;;;;;;;3.83;0.70;;;;;;;;;;6319942;28;20048;-82
2022/04/08 10:37:24;;;;;;;3.08;0.55;;;;;;;;;;6320658;28;20051;-83
2022/04/08 10:40:31;;;;;;;1.92;0.73;;;;;;;;;;6319100;28;20040;-83
2022/04/08 10:43:42;;;;;;;2.35;0.70;;;;;;;;;;6319736;28;20036;-82
2022/04/08 10:46:51;;;;;;;2.92;0.57;;;;;;;;;;6320232;28;20489;-82
2022/04/08 10:49:56;;;;;;;2.78;0.70;;;;;;;;;;6318614;28;20266;-83
2022/04/08 10:53:07;;;;;;;4.50;0.70;;;;;;;;;;6318975;28;20044;-81
2022/04/08 10:56:12;;;;;;;2.00;0.60;;;;;;;;;;6319238;28;20177;-83
2022/04/08 10:59:25;;;;;;;2.17;0.70;;;;;;;;;;6320104;28;20040;-82
2022/04/08 11:02:35;;;;;;;3.13;0.88;;;;;;;;;;6318896;28;20048;-83
2022/04/08 11:05:41;;;;;;;1.38;0.65;;;;;;;;;;6319049;28;20043;-82
2022/04/08 11:08:44;;;;;;;1.90;0.60;;;;;;;;;;6318554;28;20044;-83
2022/04/08 11:11:52;;;;;;;2.65;1.27;;;;;;;;;;6319460;28;20048;-85
2022/04/08 11:14:57;;;;;;;2.67;0.75;;;;;;;;;;6318069;28;20486;-88
2022/04/08 11:18:02;;;;;;;2.13;0.68;;;;;;;;;;6320100;28;20051;-83
2022/04/08 11:21:05;;;;;;;2.27;0.70;;;;;;;;;;6319062;28;20052;-84
2022/04/08 11:24:09;;;;;;;0.85;0.57;;;;;;;;;;6319556;28;20325;-83
2022/04/08 11:27:12;;;;;;;2.30;0.60;;;;;;;;;;6318458;28;20401;-83
2022/04/08 11:30:16;;;;;;;2.85;0.50;;;;;;;;;;6317951;28;20040;-84
2022/04/08 11:33:27;;;;;;;4.43;0.82;;;;;;;;;;6316856;28;20051;-82
2022/04/08 11:36:30;;;;;;;1.65;0.70;;;;;;;;;;6319394;28;20051;-85
2022/04/08 11:39:33;;;;;;;4.65;1.08;;;;;;;;;;6317744;28;20198;-84
2022/04/08 11:42:38;;;;;;;1.42;0.90;;;;;;;;;;6317918;28;20044;-83
2022/04/08 11:45:42;;;;;;;5.97;0.82;;;;;;;;;;6317710;28;20043;-84
2022/04/08 11:48:46;;;;;;;2.45;0.63;;;;;;;;;;6319197;28;20059;-83
2022/04/08 11:52:00;;;;;;;2.28;0.73;;;;;;;;;;6317711;28;20487;-83
2022/04/08 11:55:04;;;;;;;1.85;0.90;;;;;;;;;;6317428;28;20759;-83
2022/04/08 11:58:22;;;;;;;4.00;1.30;;;;;;;;;;6317735;28;20040;-84
2022/04/08 12:01:31;;;;;;;4.00;0.88;;;;;;;;;;6318132;28;20048;-82
2022/04/08 12:04:40;;;;;;;3.47;0.93;;;;;;;;;;6318414;28;20044;-84
2022/04/08 12:07:45;;;;;;;3.53;0.73;;;;;;;;;;6317336;28;20220;-83
2022/04/08 12:10:51;;;;;;;2.38;0.70;;;;;;;;;;6319516;28;20067;-84
2022/04/08 12:13:57;;;;;;;2.00;0.73;;;;;;;;;;6318250;28;20048;-83
2022/04/08 12:16:59;;;;;;;;;;;;;;;;;;6316817;28;20048;-81
2022/04/08 12:20:05;;;;;;;1.88;0.75;;;;;;;;;;6318165;28;19931;-83
2022/04/08 12:23:11;;;;;;;8.27;1.30;;;;;;;;;;6318422;28;20039;-82
2022/04/08 12:26:15;;;;;;;3.47;1.33;;;;;;;;;;6316297;28;20563;-82
2022/04/08 12:29:18;;;;;;;4.05;1.15;;;;;;;;;;6316540;28;20051;-84
2022/04/08 12:32:24;;;;;;;1.83;1.00;;;;;;;;;;6318209;28;20474;-83
2022/04/08 12:35:28;;;;;;;2.90;0.93;;;;;;;;;;6317792;28;20050;-83
2022/04/08 12:38:31;;;;;;;2.80;1.02;;;;;;;;;;6317081;28;20044;-82
2022/04/08 12:41:34;;;;;;;4.85;1.42;;;;;;;;;;6317497;28;20458;-83
2022/04/08 12:44:40;;;;;;;1.52;0.70;;;;;;;;;;6317654;28;20414;-78
2022/04/08 12:47:42;;;;;;;8.40;1.10;;;;;;;;;;6316134;28;20119;-85
2022/04/08 12:50:47;;;;;;;2.80;0.98;;;;;;;;;;6315823;28;20494;-85
2022/04/08 12:53:50;;;;;;;5.90;1.00;;;;;;;;;;6316743;28;20048;-85
2022/04/08 12:56:53;;;;;;;2.55;0.98;;;;;;;;;;6315778;28;20044;-85
2022/04/08 12:59:56;;;;;;;4.47;1.10;;;;;;;;;;6316130;28;20127;-84
2022/04/08 13:03:00;;;;;;;1.83;0.95;;;;;;;;;;6316396;28;20040;-85
2022/04/08 13:06:05;;;;;;;2.38;0.93;;;;;;;;;;6317621;28;20241;-89
2022/04/08 13:09:08;;;;;;;3.45;1.10;;;;;;;;;;6317995;28;20125;-88
2022/04/08 13:12:12;;;;;;;1.00;0.73;;;;;;;;;;6316906;28;20125;-86
2022/04/08 13:15:15;;;;;;;2.88;1.05;;;;;;;;;;6317832;28;20524;-84
2022/04/08 13:18:18;;;;;;;2.25;1.15;;;;;;;;;;6316226;28;20119;-85
2022/04/08 13:21:23;;;;;;;4.68;1.30;;;;;;;;;;6317132;28;20106;-84
2022/04/08 13:24:25;;;;;;;5.03;1.33;;;;;;;;;;6317145;28;20051;-82
2022/04/08 13:27:28;;;;;;;2.42;0.90;;;;;;;;;;6315906;28;20036;-83
2022/04/08 13:30:32;;;;;;;9.57;1.55;;;;;;;;;;6316606;28;20044;-84
2022/04/08 13:33:35;;;;;;;5.45;1.30;;;;;;;;;;6315474;28;20047;-84
2022/04/08 13:36:39;;;;;;;2.35;1.30;;;;;;;;;;6315887;28;20065;-88
2022/04/08 13:39:43;;;;;;;2.53;1.20;;;;;;;;;;6317896;28;20548;-88
2022/04/08 13:42:46;;;;;;;3.05;1.00;;;;;;;;;;6315560;28;20489;-84
2022/04/08 13:45:50;;;;;;;4.40;1.08;;;;;;;;;;6317062;28;20407;-86
2022/04/08 13:48:56;;;;;;;2.45;1.10;;;;;;;;;;6318544;28;20059;-85
2022/04/08 13:52:01;;;;;;;4.15;0.93;;;;;;;;;;6317549;28;20048;-85
2022/04/08 13:55:04;;;;;;;1.98;1.00;;;;;;;;;;6316267;28;20131;-88
2022/04/08 13:58:07;;;;;;;5.43;1.30;;;;;;;;;;6322130;28;20097;-89
2022/04/08 14:01:10;;;;;;;3.78;1.10;;;;;;;;;;6320284;28;20575;-87
2022/04/08 14:04:14;;;;;;;3.22;1.42;;;;;;;;;;6322055;28;20048;-86
2022/04/08 14:07:19;;;;;;;4.57;1.90;;;;;;;;;;6320886;28;20064;-84
2022/04/08 14:10:22;;;;;;;23.73;12.45;;;;;;;;;;6321811;28;20556;-82
2022/04/08 14:13:25;;;;;;;3.17;1.40;;;;;;;;;;6320130;28;20476;-84
2022/04/08 14:16:28;;;;;;;3.90;1.50;;;;;;;;;;6321812;28;20051;-88
2022/04/08 14:19:32;;;;;;;6.00;2.13;;;;;;;;;;6321429;28;20450;-88
2022/04/08 14:22:38;;;;;;;6.05;1.35;;;;;;;;;;6319600;28;20051;-88
2022/04/08 14:25:42;;;;;;;3.08;1.48;;;;;;;;;;6320965;28;20401;-85
2022/04/08 14:28:49;;;;;;;3.70;1.50;;;;;;;;;;6321038;28;20036;-86
2022/04/08 14:31:52;;;;;;;6.25;1.80;;;;;;;;;;6319325;28;20040;-87
2022/04/08 14:34:58;;;;;;;4.20;2.08;;;;;;;;;;6320073;28;20421;-85
2022/04/08 14:38:04;;;;;;;5.38;2.00;;;;;;;;;;6317234;28;20121;-88
2022/04/08 14:41:08;;;;;;;2.63;1.58;;;;;;;;;;6318435;28;20402;-86
2022/04/08 14:44:11;;;;;;;4.15;1.90;;;;;;;;;;6318164;28;20039;-86
2022/04/08 14:47:15;;;;;;;4.90;2.33;;;;;;;;;;6318117;28;20074;-87
2022/04/08 14:50:18;;;;;;;5.50;2.10;;;;;;;;;;6319404;28;20059;-86
2022/04/08 14:53:28;;;;;;;5.28;2.10;;;;;;;;;;6319429;28;20040;-85
2022/04/08 14:56:31;;;;;;;6.43;3.00;;;;;;;;;;6319561;28;20051;-87
2022/04/08 14:59:34;;;;;;;5.35;2.80;;;;;;;;;;6321116;28;20044;-86
2022/04/08 15:02:38;;;;;;;8.77;3.38;;;;;;;;;;6319014;28;20121;-86
2022/04/08 15:05:43;;;;;;;12.43;3.45;;;;;;;;;;6319464;28;20040;-85
2022/04/08 15:08:48;;;;;;;5.35;2.85;;;;;;;;;;6320536;28;20051;-87
2022/04/08 15:11:52;;;;;;;8.23;3.35;;;;;;;;;;6319576;28;20085;-91
2022/04/08 15:15:00;;;;;;;6.30;3.40;;;;;;;;;;6320161;28;20414;-87
2022/04/08 15:18:03;;;;;;;7.50;3.30;;;;;;;;;;6318838;28;20040;-86
2022/04/08 15:21:06;;;;;;;7.75;3.40;;;;;;;;;;6320360;28;20047;-86
2022/04/08 15:24:11;;;;;;;8.15;3.60;;;;;;;;;;6319015;28;20051;-86
2022/04/08 15:27:14;;;;;;;8.17;4.33;;;;;;;;;;6320422;28;20445;-85
2022/04/08 15:30:17;;;;;;;9.40;3.80;;;;;;;;;;6320077;28;20810;-86
2022/04/08 15:33:22;;;;;;;8.35;4.50;;;;;;;;;;6320685;28;20500;-88
2022/04/08 15:36:26;;;;;;;12.52;5.47;;;;;;;;;;6318147;28;20044;-86
2022/04/08 15:39:30;;;;;;;11.68;5.13;;;;;;;;;;6319832;28;20044;-87
2022/04/08 15:42:34;;;;;;;10.57;5.57;;;;;;;;;;6319962;28;20047;-86
2022/04/08 15:45:37;;;;;;;13.13;5.70;;;;;;;;;;6319170;28;20059;-86
2022/04/08 15:48:40;;;;;;;16.13;5.97;;;;;;;;;;6319226;28;20071;-87
2022/04/08 15:51:43;;;;;;;12.05;5.43;;;;;;;;;;6319467;28;20436;-86
2022/04/08 15:54:48;;;;;;;11.43;6.30;;;;;;;;;;6319229;28;20510;-86
2022/04/08 15:57:51;;;;;;;12.17;6.03;;;;;;;;;;6318822;28;20051;-87
2022/04/08 16:00:56;;;;;;;13.23;6.10;;;;;;;;;;6319240;28;20043;-86
2022/04/08 16:03:59;;;;;;;16.17;6.47;;;;;;;;;;6317892;28;20036;-87
2022/04/08 16:07:04;;;;;;;13.02;7.22;;;;;;;;;;6317631;28;20048;-85
2022/04/08 16:10:09;;;;;;;12.95;6.65;;;;;;;;;;6319266;28;20047;-87
2022/04/08 16:13:13;;;;;;;15.05;7.18;;;;;;;;;;6319048;28;20036;-84
2022/04/08 16:16:17;;;;;;;16.10;6.78;;;;;;;;;;6318370;28;20497;-85
2022/04/08 16:19:25;;;;;;;12.38;7.00;;;;;;;;;;6317431;28;20479;-86
2022/04/08 16:22:28;;;;;;;15.57;6.60;;;;;;;;;;6317937;28;20040;-86
2022/04/08 16:25:33;;;;;;;14.82;6.40;;;;;;;;;;6318768;28;20047;-85
2022/04/08 16:28:36;;;;;;;42.22;26.05;;;;;;;;;;6315633;28;20065;-88
2022/04/08 16:31:41;;;;;;;11.65;6.43;;;;;;;;;;6317237;28;20089;-86
2022/04/08 16:34:46;;;;;;;13.13;6.80;;;;;;;;;;6318157;28;20471;-87
2022/04/08 16:37:49;;;;;;;12.93;6.68;;;;;;;;;;6316990;28;20113;-87
2022/04/08 16:40:53;;;;;;;17.90;6.80;;;;;;;;;;6317744;28;20054;-87
2022/04/08 16:43:57;;;;;;;13.00;6.80;;;;;;;;;;6316435;28;20074;-87
2022/04/08 16:47:00;;;;;;;16.95;6.68;;;;;;;;;;6317855;28;20441;-86
2022/04/08 16:50:03;;;;;;;14.65;6.65;;;;;;;;;;6315618;28;20407;-85
2022/04/08 16:53:07;;;;;;;14.60;6.20;;;;;;;;;;6317763;28;20500;-86
2022/04/08 16:56:11;;;;;;;12.50;6.35;;;;;;;;;;6317875;28;20051;-87
2022/04/08 16:59:14;;;;;;;14.53;6.20;;;;;;;;;;6317283;28;20116;-85
2022/04/08 17:02:18;;;;;;;12.52;6.50;;;;;;;;;;6317484;28;20559;-86
2022/04/08 17:05:26;;;;;;;16.77;7.10;;;;;;;;;;6317450;28;20044;-86
2022/04/08 17:08:30;;;;;;;15.73;6.47;;;;;;;;;;6316361;28;20040;-87
2022/04/08 17:11:35;;;;;;;16.98;5.90;;;;;;;;;;6317000;28;20444;-87
2022/04/08 17:14:38;;;;;;;13.07;6.35;;;;;;;;;;6299739;28;20074;-85
2022/04/08 17:17:41;;;;;;;16.45;6.57;;;;;;;;;;6316110;28;20051;-86
2022/04/08 17:20:45;;;;;;;13.07;6.32;;;;;;;;;;6315205;28;20089;-80
2022/04/08 17:23:48;;;;;;;54.95;32.03;;;;;;;;;;6315727;28;20056;-81
2022/04/08 17:26:54;;;;;;;15.80;7.30;;;;;;;;;;6315369;28;20044;-82
2022/04/08 17:29:57;;;;;;;15.57;6.68;;;;;;;;;;6315906;28;20421;-82
2022/04/08 17:33:03;;;;;;;14.43;7.13;;;;;;;;;;6316619;28;20406;-87
2022/04/08 17:36:06;;;;;;;17.90;6.80;;;;;;;;;;6317242;28;20123;-80
2022/04/08 17:39:09;;;;;;;16.27;7.35;;;;;;;;;;6317094;28;20098;-82
2022/04/08 17:42:13;;;;;;;18.75;7.55;;;;;;;;;;6314670;28;20047;-80
2022/04/08 17:45:19;;;;;;;18.90;7.47;;;;;;;;;;6316645;28;20409;-80
2022/04/08 17:48:22;;;;;;;;;;;;;;;;;;6316822;28;20044;-83
2022/04/08 17:51:25;;;;;;;21.48;7.68;;;;;;;;;;6312624;28;19920;-81
2022/04/08 17:54:28;;;;;;;18.10;7.40;;;;;;;;;;6313379;28;20044;-82
2022/04/08 17:57:33;;;;;;;14.20;6.88;;;;;;;;;;6315182;28;20101;-81
2022/04/08 18:00:36;;;;;;;18.30;6.67;;;;;;;;;;6314216;28;20169;-82
2022/04/08 18:03:39;;;;;;;16.15;6.95;;;;;;;;;;6314793;28;20043;-80
2022/04/08 18:06:43;;;;;;;17.08;8.15;;;;;;;;;;6312238;28;20101;-81
2022/04/08 18:09:46;;;;;;;16.83;7.13;;;;;;;;;;6313812;28;20040;-82
2022/04/08 18:12:51;;;;;;;13.90;6.82;;;;;;;;;;6313259;28;20044;-82
2022/04/08 18:15:54;;;;;;;12.60;5.93;;;;;;;;;;6312485;28;20513;-82
2022/04/08 18:18:57;;;;;;;12.98;6.05;;;;;;;;;;6312202;28;20383;-83
2022/04/08 18:22:01;;;;;;;16.35;5.40;;;;;;;;;;6314934;28;20044;-80
2022/04/08 18:25:04;;;;;;;14.18;4.93;;;;;;;;;;6314879;28;20076;-83